Time;durP1;ratioP1;P1;durP2;ratioP2;P2;SDS_P1;SDS_P2;PMS_P1;PMS_P2;Temp;Humidity;BMP_temperature;BMP_pressure;BME280_temperature;BME280_humidity;BME280_pressure;Samples;Min_cycle;Max_cycle;Signal;HPM_P1;HPM_P2
2021/11/09 00:01:45;;;;;;;1.42;1.33;;;;;;;4.31;74.90;97796.59;5050002;28;20506;-70
2021/11/09 00:04:11;;;;;;;2.28;1.70;;;;;;;4.33;75.19;97803.22;5049822;28;20051;-69
2021/11/09 00:06:42;;;;;;;1.55;1.45;;;;;;;4.39;75.28;97796.22;5050314;28;20118;-70
2021/11/09 00:09:15;;;;;;;1.45;1.35;;;;;;;4.35;75.51;97807.41;5051039;28;20502;-70
2021/11/09 00:11:41;;;;;;;1.60;1.50;;;;;;;4.37;75.38;97808.78;5051454;28;20064;-69
2021/11/09 00:14:08;;;;;;;1.75;1.30;;;;;;;4.35;75.73;97817.91;5051680;28;20414;-70
2021/11/09 00:16:34;;;;;;;1.40;1.30;;;;;;;4.36;75.35;97817.69;5055496;28;20063;-71
2021/11/09 00:19:01;;;;;;;1.65;1.40;;;;;;;4.40;76.00;97818.81;5053831;28;20041;-71
2021/11/09 00:21:28;;;;;;;1.48;1.35;;;;;;;4.38;76.59;97820.84;5055043;28;20045;-69
2021/11/09 00:23:55;;;;;;;1.90;1.40;;;;;;;4.38;75.71;97825.31;5053755;28;20149;-71
2021/11/09 00:26:21;;;;;;;1.55;1.45;;;;;;;4.34;76.85;97827.63;5055000;28;20041;-70
2021/11/09 00:28:48;;;;;;;1.58;1.48;;;;;;;4.36;77.65;97824.78;5054608;28;20044;-70
2021/11/09 00:31:14;;;;;;;2.72;1.60;;;;;;;4.33;78.30;97826.03;5054702;28;20056;-72
2021/11/09 00:33:40;;;;;;;2.95;1.50;;;;;;;4.26;79.03;97838.47;5053355;28;20043;-69
2021/11/09 00:36:06;;;;;;;3.22;1.40;;;;;;;4.21;77.45;97841.03;5054692;28;20508;-70
2021/11/09 00:38:33;;;;;;;2.08;1.63;;;;;;;4.11;77.85;97839.00;5053575;28;20525;-70
2021/11/09 00:40:59;;;;;;;1.60;1.40;;;;;;;4.17;80.05;97847.75;5054747;28;20045;-69
2021/11/09 00:43:26;;;;;;;1.83;1.60;;;;;;;4.17;78.47;97848.53;5036650;28;20045;-71
2021/11/09 00:45:52;;;;;;;1.60;1.50;;;;;;;4.12;78.19;97858.97;5036768;28;20041;-68
2021/11/09 00:48:19;;;;;;;2.20;1.75;;;;;;;3.93;77.46;97860.13;5003671;28;20083;-70
2021/11/09 00:50:46;;;;;;;6.35;3.63;;;;;;;3.70;77.99;97856.50;5053615;28;20052;-70
2021/11/09 00:53:15;;;;;;;5.05;2.90;;;;;;;3.50;78.51;97875.25;5054251;28;20040;-70
2021/11/09 00:55:41;;;;;;;5.70;3.25;;;;;;;3.36;79.15;97874.66;5054376;28;20037;-70
2021/11/09 00:58:08;;;;;;;2.67;2.20;;;;;;;3.29;79.67;97894.13;5054363;28;20124;-70
2021/11/09 01:00:35;;;;;;;2.15;1.98;;;;;;;3.11;79.22;97901.03;5054302;28;20037;-70
2021/11/09 01:03:04;;;;;;;2.85;2.03;;;;;;;3.01;79.85;97905.25;5053247;28;20060;-69
2021/11/09 01:05:30;;;;;;;1.50;1.40;;;;;;;2.88;79.92;97903.59;5054463;28;20043;-70
2021/11/09 01:07:59;;;;;;;1.33;1.20;;;;;;;2.83;79.86;97909.53;5054485;28;20405;-70
2021/11/09 01:10:31;;;;;;;1.40;1.17;;;;;;;2.78;80.01;97913.84;5052534;28;20421;-72
2021/11/09 01:12:58;;;;;;;0.70;0.70;;;;;;;2.49;80.04;97919.63;5054413;28;20124;-70
2021/11/09 01:15:25;;;;;;;1.02;1.00;;;;;;;2.40;80.26;97934.03;5054064;28;20049;-70
2021/11/09 01:17:51;;;;;;;0.90;0.90;;;;;;;2.38;81.72;97935.28;5054355;28;20045;-71
2021/11/09 01:20:19;;;;;;;0.88;0.88;;;;;;;2.32;81.50;97944.00;5054214;28;20076;-70
2021/11/09 01:22:50;;;;;;;1.40;0.80;;;;;;;2.28;81.35;97944.44;5035991;28;20057;-69
2021/11/09 01:25:16;;;;;;;0.70;0.70;;;;;;;2.33;81.89;97954.25;5052686;28;20077;-69
2021/11/09 01:27:42;;;;;;;0.60;0.60;;;;;;;2.25;81.10;97952.72;5054029;28;20041;-70
2021/11/09 01:30:09;;;;;;;2.15;0.75;;;;;;;2.20;81.41;97957.78;5053440;28;20049;-69
2021/11/09 01:32:35;;;;;;;1.73;0.88;;;;;;;2.21;81.31;97964.63;5054062;28;20041;-71
2021/11/09 01:35:03;;;;;;;1.05;0.60;;;;;;;2.10;80.71;97969.78;5052461;28;20053;-71
2021/11/09 01:37:29;;;;;;;0.63;0.63;;;;;;;2.07;80.98;97970.22;5052433;28;20037;-70
2021/11/09 01:39:55;;;;;;;0.50;0.50;;;;;;;1.91;80.43;97989.88;5035859;28;20052;-68
2021/11/09 01:42:21;;;;;;;1.13;0.70;;;;;;;1.86;80.69;97989.72;5053770;28;20433;-70
2021/11/09 01:44:46;;;;;;;0.50;0.50;;;;;;;1.89;80.14;98002.38;5052295;28;20052;-70
2021/11/09 01:47:12;;;;;;;0.50;0.50;;;;;;;1.81;80.50;97999.00;5053482;28;20041;-71
2021/11/09 01:49:38;;;;;;;0.80;0.60;;;;;;;1.77;81.06;98000.44;5053635;28;20056;-71
2021/11/09 01:52:04;;;;;;;0.50;0.50;;;;;;;1.71;81.76;98011.75;5052262;28;20041;-70
2021/11/09 01:54:30;;;;;;;0.60;0.60;;;;;;;1.71;81.47;98021.41;5053558;28;20041;-69
2021/11/09 01:56:56;;;;;;;0.55;0.45;;;;;;;1.63;81.81;98048.59;5052043;28;20171;-70
2021/11/09 01:59:23;;;;;;;0.40;0.40;;;;;;;1.58;82.03;98040.59;5018826;28;20498;-69
2021/11/09 02:01:48;;;;;;;0.60;0.60;;;;;;;1.48;82.08;98014.94;5035399;28;20139;-69
2021/11/09 02:04:14;;;;;;;0.40;0.40;;;;;;;1.55;82.06;98043.63;5031826;28;20041;-68
2021/11/09 02:06:40;;;;;;;0.40;0.40;;;;;;;1.56;81.68;98053.06;5033509;28;20176;-70
2021/11/09 02:09:13;;;;;;;0.50;0.50;;;;;;;1.51;82.06;98052.91;5040582;28;20051;-69
2021/11/09 02:11:39;;;;;;;0.60;0.60;;;;;;;1.52;82.79;98051.88;5053050;28;20510;-69
2021/11/09 02:14:06;;;;;;;0.40;0.40;;;;;;;1.46;83.65;98063.19;5034976;28;20044;-69
2021/11/09 02:16:33;;;;;;;0.40;0.40;;;;;;;1.48;84.40;98072.41;5051618;28;20501;-70
2021/11/09 02:18:59;;;;;;;0.55;0.50;;;;;;;1.40;83.91;98070.03;5053009;28;20041;-70
2021/11/09 02:21:25;;;;;;;0.50;0.50;;;;;;;1.39;83.83;98085.94;5051575;28;20071;-69
2021/11/09 02:23:51;;;;;;;1.08;0.50;;;;;;;1.40;83.45;98096.16;5051504;28;20540;-70
2021/11/09 02:26:20;;;;;;;0.40;0.40;;;;;;;1.40;83.58;98088.31;5052985;28;20049;-70
2021/11/09 02:28:48;;;;;;;0.40;0.40;;;;;;;1.39;83.70;98093.75;5052439;28;20512;-68
2021/11/09 02:31:14;;;;;;;1.45;0.50;;;;;;;1.44;84.47;98088.69;5051105;28;20052;-68
2021/11/09 02:33:40;;;;;;;0.40;0.40;;;;;;;1.39;83.92;98107.59;5050848;28;20526;-69
2021/11/09 02:36:06;;;;;;;0.75;0.40;;;;;;;1.32;83.70;98096.38;5052320;28;20041;-68
2021/11/09 02:38:32;;;;;;;0.45;0.45;;;;;;;1.30;83.78;98112.28;5051447;28;20521;-70
2021/11/09 02:40:58;;;;;;;2.28;0.50;;;;;;;1.30;84.64;98119.31;5051439;28;20098;-69
2021/11/09 02:43:26;;;;;;;0.43;0.43;;;;;;;1.22;84.14;98125.56;5052447;28;20045;-69
2021/11/09 02:46:42;;;;;;;0.45;0.45;;;;;;;1.18;83.64;98126.16;5052352;28;20068;-69
2021/11/09 02:49:47;;;;;;;0.40;0.40;;;;;;;1.26;84.25;98144.22;5045517;28;20057;-67
2021/11/09 02:54:16;;;;;;;0.40;0.40;;;;;;;1.13;83.23;98160.75;5052334;28;20033;-67
2021/11/09 02:56:48;;;;;;;0.40;0.40;;;;;;;1.06;83.72;98152.94;5052319;28;20502;-68
2021/11/09 03:09:32;;;;;;;0.40;0.40;;;;;;;1.09;83.19;98190.88;5050258;28;20052;-70
2021/11/09 03:12:01;;;;;;;0.55;0.50;;;;;;;1.02;83.50;98203.13;5031853;28;20127;-69
2021/11/09 03:14:27;;;;;;;0.35;0.35;;;;;;;0.98;83.94;98194.91;5051795;28;20087;-70
2021/11/09 03:16:56;;;;;;;0.40;0.40;;;;;;;0.95;83.27;98218.81;5050835;28;20128;-68
2021/11/09 03:46:55;;;;;;;0.63;0.63;;;;;;;0.74;83.92;98297.28;5050373;28;20131;-69
2021/11/09 03:49:24;;;;;;;0.85;0.82;;;;;;;0.66;82.65;98311.31;5049008;28;20049;-68
2021/11/09 03:51:50;;;;;;;0.57;0.57;;;;;;;0.58;82.00;98327.16;5051767;28;20186;-70
2021/11/09 03:54:18;;;;;;;1.52;0.90;;;;;;;0.56;83.52;98334.38;5051215;28;20047;-69
2021/11/09 03:56:55;;;;;;;0.70;0.70;;;;;;;0.48;83.31;98329.38;5050287;28;20045;-68
2021/11/09 03:59:29;;;;;;;0.50;0.50;;;;;;;0.45;82.09;98338.38;5051015;28;20045;-71
2021/11/09 04:04:35;;;;;;;1.50;0.80;;;;;;;0.41;81.34;98376.25;5049585;28;20072;-69
2021/11/09 04:07:07;;;;;;;0.90;0.90;;;;;;;0.47;81.70;98354.63;5051490;28;20057;-69
2021/11/09 04:09:44;;;;;;;0.85;0.85;;;;;;;0.47;81.92;98356.41;5050644;28;20044;-70
2021/11/09 04:12:32;;;;;;;1.20;1.10;;;;;;;0.39;82.84;98353.00;5050058;28;20056;-69
2021/11/09 04:20:30;;;;;;;1.42;1.25;;;;;;;0.45;83.35;98390.53;5050710;28;20131;-70
2021/11/09 04:28:22;;;;;;;2.95;1.70;;;;;;;0.24;82.06;98433.19;5050777;28;20045;-71
2021/11/09 05:10:40;;;;;;;4.18;2.33;;;;;;;0.02;77.84;98536.69;5052288;28;20139;-66
2021/11/09 05:13:06;;;;;;;4.60;2.50;;;;;;;0.05;77.44;98538.09;5053756;28;20132;-61
2021/11/09 05:15:33;;;;;;;2.72;2.28;;;;;;;0.06;77.83;98558.78;5053361;28;20095;-60
2021/11/09 05:18:00;;;;;;;5.35;2.53;;;;;;;-0.02;78.26;98546.69;5019612;28;20076;-63
2021/11/09 05:20:27;;;;;;;5.18;3.17;;;;;;;0.05;78.92;98557.13;5053181;28;20057;-64
2021/11/09 05:22:53;;;;;;;3.60;2.60;;;;;;;0.04;79.35;98557.34;5035883;28;20057;-67
2021/11/09 05:25:19;;;;;;;4.20;2.55;;;;;;;0.07;78.86;98570.00;5053515;28;20040;-65
2021/11/09 05:27:46;;;;;;;4.07;2.38;;;;;;;0.09;79.14;98578.41;5052089;28;20056;-65
2021/11/09 05:30:15;;;;;;;5.35;3.00;;;;;;;0.07;79.05;98575.19;5053116;28;20120;-64
2021/11/09 05:32:41;;;;;;;4.15;2.65;;;;;;;0.08;78.98;98613.28;5053536;28;20045;-65
2021/11/09 05:35:07;;;;;;;5.05;2.60;;;;;;;0.11;78.74;98612.91;5052955;28;20041;-65
2021/11/09 05:37:45;;;;;;;3.60;2.55;;;;;;;0.15;78.29;98625.38;5053608;28;20127;-67
2021/11/09 05:40:12;;;;;;;3.70;2.58;;;;;;;0.10;77.43;98632.97;5053329;28;20041;-66
2021/11/09 05:42:38;;;;;;;3.47;2.65;;;;;;;0.10;76.91;98634.75;5052089;28;20041;-65
2021/11/09 05:45:06;;;;;;;4.05;2.42;;;;;;;0.05;76.43;98640.53;5053057;28;20041;-65
2021/11/09 05:47:32;;;;;;;5.63;2.80;;;;;;;-0.01;77.88;98636.88;5035824;28;20120;-66
2021/11/09 05:49:58;;;;;;;4.53;2.90;;;;;;;0.05;76.99;98640.53;5051953;28;20468;-66
2021/11/09 05:52:24;;;;;;;4.60;3.28;;;;;;;0.14;77.82;98656.84;5051839;28;20049;-64
2021/11/09 05:54:50;;;;;;;3.25;2.20;;;;;;;0.10;79.19;98645.19;5052966;28;20041;-70
2021/11/09 05:57:16;;;;;;;4.15;2.60;;;;;;;0.08;79.78;98671.41;5030453;28;20052;-65
2021/11/09 05:59:42;;;;;;;3.35;2.15;;;;;;;-0.06;80.39;98673.13;5050917;28;20481;-66
2021/11/09 06:02:08;;;;;;;4.82;3.13;;;;;;;0.05;81.01;98665.78;5047770;28;20140;-68
2021/11/09 06:04:34;;;;;;;4.13;2.60;;;;;;;0.11;80.24;98680.66;5050038;28;20036;-68
2021/11/09 06:07:00;;;;;;;6.25;2.53;;;;;;;0.10;80.72;98715.53;5050170;28;20044;-67
2021/11/09 06:09:26;;;;;;;3.80;2.53;;;;;;;0.02;81.27;98695.63;5050067;28;20051;-67
2021/11/09 06:11:52;;;;;;;3.92;2.53;;;;;;;-0.07;81.79;98707.97;5032393;28;20507;-69
2021/11/09 06:14:18;;;;;;;5.95;2.95;;;;;;;0.02;82.68;98719.06;5032685;28;20058;-66
2021/11/09 06:16:43;;;;;;;3.63;2.47;;;;;;;-0.05;80.40;98715.59;5050246;28;20128;-68
2021/11/09 06:19:10;;;;;;;3.38;2.65;;;;;;;0.10;81.29;98723.38;5049919;28;20033;-69
2021/11/09 06:21:36;;;;;;;3.78;2.30;;;;;;;-0.03;79.56;98724.84;5050632;28;20522;-70
2021/11/09 06:24:02;;;;;;;3.25;2.25;;;;;;;-0.12;79.03;98753.78;5031253;28;20144;-73
2021/11/09 06:26:29;;;;;;;3.65;2.45;;;;;;;-0.14;79.87;98753.19;5049592;28;20131;-71
2021/11/09 06:28:59;;;;;;;3.47;2.40;;;;;;;-0.17;79.60;98774.41;5000528;28;20499;-68
2021/11/09 06:31:28;;;;;;;3.40;2.40;;;;;;;-0.30;78.79;98754.19;5050554;28;20577;-66
2021/11/09 06:33:54;;;;;;;4.43;2.85;;;;;;;-0.20;78.69;98767.75;5049125;28;20055;-67
2021/11/09 06:36:20;;;;;;;3.50;2.17;;;;;;;-0.26;76.87;98784.91;5049656;28;20049;-66
2021/11/09 06:38:46;;;;;;;1.60;1.38;;;;;;;-0.38;75.56;98783.78;5050985;28;20040;-67
2021/11/09 06:41:12;;;;;;;2.80;1.48;;;;;;;-0.45;73.22;98808.91;5049149;28;20045;-70
2021/11/09 06:43:38;;;;;;;1.63;1.50;;;;;;;-0.41;73.33;98817.97;5049583;28;20044;-69
2021/11/09 06:46:04;;;;;;;1.77;1.40;;;;;;;-0.50;72.39;98832.88;5047216;28;20521;-72
2021/11/09 06:48:30;;;;;;;1.40;1.30;;;;;;;-0.51;72.80;98831.25;5046383;28;20044;-69
2021/11/09 06:50:56;;;;;;;3.30;1.90;;;;;;;-0.41;73.27;98827.56;5047089;28;20047;-70
2021/11/09 06:53:22;;;;;;;4.28;1.98;;;;;;;-0.38;73.97;98833.25;5048782;28;20041;-71
2021/11/09 06:55:48;;;;;;;2.17;1.65;;;;;;;-0.29;75.10;98832.16;5049407;28;20073;-69
2021/11/09 06:58:15;;;;;;;2.38;1.67;;;;;;;-0.39;74.70;98873.28;5048304;28;20075;-71
2021/11/09 07:00:41;;;;;;;2.85;1.67;;;;;;;-0.53;74.24;98842.81;5047700;28;20063;-70
2021/11/09 07:03:07;;;;;;;1.40;1.20;;;;;;;-0.62;71.81;98875.94;5050412;28;20090;-70
2021/11/09 07:05:33;;;;;;;4.90;1.42;;;;;;;-0.80;72.50;98875.47;5049696;28;20144;-69
2021/11/09 07:07:59;;;;;;;2.35;1.50;;;;;;;-0.81;71.30;98892.88;5029118;28;20464;-71
2021/11/09 07:10:25;;;;;;;2.97;1.30;;;;;;;-0.79;70.53;98896.13;5048767;28;20040;-67
2021/11/09 07:12:51;;;;;;;2.67;1.45;;;;;;;-0.80;72.50;98883.28;5048673;28;20517;-69
2021/11/09 07:15:18;;;;;;;2.08;1.25;;;;;;;-0.74;71.77;98892.97;5029349;28;20140;-68
2021/11/09 07:17:45;;;;;;;2.25;1.13;;;;;;;-0.79;69.68;98939.56;5047769;28;20049;-70
2021/11/09 07:20:14;;;;;;;2.75;1.17;;;;;;;-0.99;68.28;98929.63;5014520;28;20473;-69
2021/11/09 07:22:40;;;;;;;1.35;1.17;;;;;;;-0.83;69.00;98933.88;5029670;28;20088;-73
2021/11/09 07:25:07;;;;;;;4.32;1.73;;;;;;;-0.77;69.41;98946.19;5031369;28;20037;-68
2021/11/09 07:27:33;;;;;;;4.18;1.40;;;;;;;-0.86;69.88;98923.03;5047339;28;20036;-69
2021/11/09 07:30:00;;;;;;;1.40;1.00;;;;;;;-0.90;69.13;98943.38;5029831;28;20102;-67
2021/11/09 07:32:26;;;;;;;1.30;1.10;;;;;;;-0.82;68.27;98945.94;5048785;28;20037;-64
2021/11/09 07:34:53;;;;;;;2.30;1.50;;;;;;;-0.80;69.48;98958.75;5048794;28;20437;-59
2021/11/09 07:37:20;;;;;;;1.67;1.20;;;;;;;-0.82;69.34;98969.34;5047104;28;20057;-67
2021/11/09 07:39:46;;;;;;;1.90;1.35;;;;;;;-0.74;68.70;98965.84;5049312;28;20053;-65
2021/11/09 07:42:12;;;;;;;1.00;1.00;;;;;;;-0.80;69.87;98972.56;5048541;28;20037;-65
2021/11/09 07:44:38;;;;;;;2.35;1.35;;;;;;;-0.72;68.91;98997.72;5047966;28;20521;-65
2021/11/09 07:47:04;;;;;;;1.48;0.88;;;;;;;-0.86;67.32;99022.72;5047114;28;20131;-64
2021/11/09 07:49:30;;;;;;;2.28;1.25;;;;;;;-0.88;68.63;99024.69;5046607;28;20518;-66
2021/11/09 07:51:56;;;;;;;1.23;1.00;;;;;;;-0.82;69.19;99013.59;5046561;28;20083;-64
2021/11/09 07:54:27;;;;;;;2.00;1.20;;;;;;;-0.91;68.80;99022.44;5046836;28;20132;-66
2021/11/09 07:57:01;;;;;;;2.63;1.20;;;;;;;-0.90;68.67;98995.44;5048378;28;20059;-64
2021/11/09 08:02:05;;;;;;;1.20;1.10;;;;;;;-0.94;67.69;99025.38;5050625;28;20136;-65
2021/11/09 08:04:39;;;;;;;0.95;0.73;;;;;;;-0.95;67.51;99044.56;5049460;28;20464;-65
2021/11/09 08:07:18;;;;;;;1.85;0.98;;;;;;;-1.07;67.56;99045.94;5046258;28;20548;-64
2021/11/09 08:09:44;;;;;;;1.80;1.38;;;;;;;-0.91;68.51;99040.66;5017645;28;20037;-64
2021/11/09 08:12:10;;;;;;;1.60;1.05;;;;;;;-0.97;66.26;99106.34;5047678;28;20583;-66
2021/11/09 08:14:37;;;;;;;1.40;1.10;;;;;;;-0.91;67.22;99071.88;5047798;28;20045;-63
2021/11/09 08:17:03;;;;;;;3.67;1.10;;;;;;;-0.99;66.20;99114.34;5048763;28;20080;-64
2021/11/09 08:19:29;;;;;;;2.95;1.13;;;;;;;-1.18;66.33;99057.50;5015431;28;20124;-63
2021/11/09 08:21:56;;;;;;;3.33;1.40;;;;;;;-1.15;67.31;99086.63;5046931;28;20469;-65
2021/11/09 08:24:24;;;;;;;1.08;1.05;;;;;;;-1.07;68.85;99084.94;5047310;28;20044;-64
2021/11/09 08:26:51;;;;;;;4.10;1.55;;;;;;;-0.86;68.92;99089.56;5049626;28;20053;-62
2021/11/09 08:29:22;;;;;;;1.73;1.30;;;;;;;-0.82;68.93;99094.25;5048497;28;20044;-63
2021/11/09 08:31:51;;;;;;;4.32;1.23;;;;;;;-0.74;68.12;99109.00;5050223;28;20037;-62
2021/11/09 08:34:17;;;;;;;2.35;1.10;;;;;;;-0.70;68.29;99112.91;5044722;28;20053;-63
2021/11/09 08:36:45;;;;;;;2.05;1.05;;;;;;;-0.77;68.24;99115.34;5032931;28;20045;-63
2021/11/09 08:39:16;;;;;;;3.63;1.27;;;;;;;-0.74;67.15;99124.63;5034056;28;20049;-62
2021/11/09 08:41:46;;;;;;;1.50;1.10;;;;;;;-0.88;66.20;99128.78;5051036;28;20041;-64
2021/11/09 08:44:18;;;;;;;1.77;1.10;;;;;;;-0.80;66.78;99141.72;5051612;28;20132;-64
2021/11/09 08:46:52;;;;;;;3.08;1.20;;;;;;;-0.73;67.25;99139.28;5048793;28;20036;-66
2021/11/09 08:49:19;;;;;;;2.55;1.05;;;;;;;-0.65;66.65;99131.41;5049876;28;20232;-66
2021/11/09 08:51:49;;;;;;;1.85;0.98;;;;;;;-0.76;66.42;99156.03;5051232;28;20490;-63
2021/11/09 09:04:43;;;;;;;4.18;1.92;;;;;;;-0.65;67.28;99170.44;5032486;28;20463;-65
2021/11/09 09:07:09;;;;;;;2.03;1.00;;;;;;;-0.75;65.56;99168.06;5050838;28;20037;-64
2021/11/09 09:09:35;;;;;;;2.40;1.40;;;;;;;-0.66;65.83;99181.84;5050192;28;20047;-62
2021/11/09 09:12:01;;;;;;;1.75;1.10;;;;;;;-0.91;65.62;99186.38;5050305;28;20489;-65
2021/11/09 09:14:27;;;;;;;3.75;1.30;;;;;;;-0.95;66.21;99175.47;5032008;28;20450;-64
2021/11/09 09:16:55;;;;;;;1.20;1.10;;;;;;;-0.94;66.56;99190.13;5047664;28;20256;-63
2021/11/09 09:19:26;;;;;;;1.00;1.00;;;;;;;-0.88;66.63;99186.03;5050060;28;20438;-64
2021/11/09 09:24:41;;;;;;;2.28;1.20;;;;;;;-0.90;66.16;99195.78;5018302;28;20045;-63
2021/11/09 09:57:10;;;;;;;1.73;1.15;;;;;;;-1.18;67.39;99243.03;5051355;28;20724;-62
2021/11/09 09:59:38;;;;;;;0.80;0.80;;;;;;;-1.10;66.76;99268.19;5049436;28;20148;-63
2021/11/09 10:02:15;;;;;;;1.92;1.40;;;;;;;-0.92;67.47;99258.38;5050840;28;20049;-63
2021/11/09 10:04:47;;;;;;;1.00;1.00;;;;;;;-0.96;65.11;99283.13;5051348;28;20495;-62
2021/11/09 10:07:26;;;;;;;1.20;1.00;;;;;;;-0.88;65.02;99264.09;5050851;28;20491;-62
2021/11/09 10:09:52;;;;;;;1.13;0.77;;;;;;;-0.93;63.62;99280.19;5050591;28;20045;-62
2021/11/09 10:12:31;;;;;;;1.77;1.17;;;;;;;-0.90;62.62;99278.25;5051673;28;20052;-62
2021/11/09 10:15:01;;;;;;;1.00;1.00;;;;;;;-0.90;63.77;99301.66;5035524;28;20163;-62
2021/11/09 10:17:29;;;;;;;1.70;1.17;;;;;;;-0.83;63.34;99305.22;5033114;28;20040;-62
2021/11/09 10:19:58;;;;;;;1.25;1.15;;;;;;;-0.83;64.17;99295.63;5047369;28;20045;-63
2021/11/09 10:22:27;;;;;;;1.60;1.10;;;;;;;-0.73;64.00;99287.66;5048243;28;20118;-63
2021/11/09 10:24:59;;;;;;;1.73;1.00;;;;;;;-0.80;64.75;99297.09;5046577;28;20047;-64
2021/11/09 10:27:26;;;;;;;2.53;1.17;;;;;;;-0.85;62.28;99325.38;5046429;28;20657;-64
2021/11/09 10:29:55;;;;;;;3.38;1.20;;;;;;;-0.93;63.15;99319.22;5048475;28;20502;-65
2021/11/09 10:32:31;;;;;;;2.58;1.20;;;;;;;-0.88;62.10;99349.97;5047705;28;20106;-66
2021/11/09 10:34:59;;;;;;;2.38;1.00;;;;;;;-1.05;63.09;99333.56;5046257;28;20040;-67
2021/11/09 10:37:31;;;;;;;1.80;1.17;;;;;;;-0.95;63.58;99359.41;5013235;28;20498;-69
2021/11/09 10:40:05;;;;;;;3.58;1.40;;;;;;;-1.03;63.54;99339.41;5047980;28;20043;-67
2021/11/09 10:42:32;;;;;;;2.78;1.02;;;;;;;-1.12;62.81;99349.97;5047418;28;20041;-66
2021/11/09 10:45:02;;;;;;;1.80;1.13;;;;;;;-1.19;63.05;99358.44;5048753;28;20033;-70
2021/11/09 10:47:30;;;;;;;3.50;1.20;;;;;;;-1.11;63.59;99362.81;5046872;28;20096;-70
2021/11/09 10:49:58;;;;;;;1.20;1.10;;;;;;;-1.23;63.57;99383.13;5045632;28;20041;-66
2021/11/09 10:52:28;;;;;;;1.25;1.00;;;;;;;-1.22;63.49;99374.34;5046858;28;20056;-68
2021/11/09 10:57:50;;;;;;;1.25;1.15;;;;;;;-1.26;63.74;99416.47;5050794;28;19970;-68
2021/11/09 11:06:16;;;;;;;1.30;1.00;;;;;;;-1.18;63.31;99390.44;5045173;28;20095;-69
2021/11/09 11:08:46;;;;;;;1.38;1.25;;;;;;;-1.19;62.80;99397.44;5030513;28;20056;-68
2021/11/09 11:11:18;;;;;;;1.00;0.85;;;;;;;-1.12;62.85;99417.59;5048997;28;20127;-68
2021/11/09 11:13:44;;;;;;;1.67;0.93;;;;;;;-1.15;63.01;99403.13;5046960;28;20413;-67
2021/11/09 11:16:13;;;;;;;1.65;1.10;;;;;;;-1.12;63.36;99422.81;5025804;28;20049;-68
2021/11/09 11:18:45;;;;;;;1.58;1.10;;;;;;;-1.18;62.43;99422.50;5028883;28;20521;-68
2021/11/09 11:21:12;;;;;;;1.73;1.10;;;;;;;-1.10;63.05;99421.66;5030400;28;20045;-69
2021/11/09 11:23:40;;;;;;;1.38;1.00;;;;;;;-1.04;63.32;99428.03;5048759;28;20075;-68
2021/11/09 11:26:07;;;;;;;1.20;0.88;;;;;;;-1.08;63.35;99432.75;5048966;28;20466;-67
2021/11/09 11:28:36;;;;;;;1.83;0.98;;;;;;;-1.12;63.12;99430.59;5046277;28;20049;-67
2021/11/09 11:31:03;;;;;;;2.60;0.90;;;;;;;-1.13;64.01;99448.00;5048020;28;20041;-67
2021/11/09 11:33:29;;;;;;;5.07;1.17;;;;;;;-0.99;64.37;99462.19;5034985;28;20056;-67
2021/11/09 11:35:56;;;;;;;3.58;1.20;;;;;;;-1.09;63.25;99474.50;5028471;28;20090;-66
2021/11/09 11:38:23;;;;;;;2.25;1.15;;;;;;;-1.13;62.45;99468.00;5033809;28;20132;-68
2021/11/09 11:40:50;;;;;;;1.05;0.80;;;;;;;-1.11;62.82;99476.47;5029762;28;20041;-66
2021/11/09 11:43:47;;;;;;;2.60;1.10;;;;;;;-1.11;63.79;99466.88;5025874;28;20107;-66
2021/11/09 11:46:37;;;;;;;3.38;1.20;;;;;;;-1.14;63.34;99472.41;5044055;28;20492;-68
2021/11/09 11:49:04;;;;;;;1.23;0.95;;;;;;;-1.20;63.26;99492.06;5038136;28;20053;-67
2021/11/09 11:51:32;;;;;;;0.82;0.82;;;;;;;-1.22;64.08;99475.78;5028700;28;20041;-67
2021/11/09 11:53:58;;;;;;;2.65;1.20;;;;;;;-1.22;64.47;99493.19;5032982;28;20390;-67
2021/11/09 11:56:39;;;;;;;2.20;1.15;;;;;;;-1.27;64.78;99493.66;5026413;28;20133;-68
2021/11/09 11:59:07;;;;;;;1.58;1.02;;;;;;;-1.23;64.58;99505.38;5029114;28;20049;-65
2021/11/09 12:01:41;;;;;;;0.90;0.90;;;;;;;-1.27;64.42;99506.66;5027597;28;20048;-67
2021/11/09 12:04:31;;;;;;;2.35;1.08;;;;;;;-1.22;64.79;99504.41;5034090;28;20087;-67
2021/11/09 12:06:57;;;;;;;2.35;1.00;;;;;;;-1.23;64.85;99520.19;5043988;28;20053;-67
2021/11/09 12:09:33;;;;;;;4.18;1.30;;;;;;;-1.21;65.39;99513.81;5025702;28;20045;-68
2021/11/09 12:12:11;;;;;;;2.55;1.27;;;;;;;-1.21;65.77;99526.03;5029600;28;20465;-68
2021/11/09 12:14:48;;;;;;;1.83;1.05;;;;;;;-1.18;65.90;99531.75;5031205;28;20048;-68
2021/11/09 12:17:36;;;;;;;2.25;1.27;;;;;;;-1.03;66.44;99536.31;5028967;28;20053;-68
2021/11/09 12:20:19;;;;;;;3.10;1.25;;;;;;;-1.07;65.85;99540.22;5027245;28;20082;-67
2021/11/09 12:22:54;;;;;;;3.22;1.23;;;;;;;-1.02;65.33;99546.56;5031289;28;20103;-65
2021/11/09 12:25:32;;;;;;;3.35;1.25;;;;;;;-1.01;66.28;99555.19;5047843;28;20049;-62
2021/11/09 12:28:10;;;;;;;3.13;1.40;;;;;;;-1.04;66.61;99551.13;5050317;28;20048;-61
2021/11/09 12:30:46;;;;;;;3.00;1.42;;;;;;;-1.07;66.59;99555.81;5050693;28;20094;-61
2021/11/09 12:33:27;;;;;;;1.35;1.17;;;;;;;-1.10;66.78;99569.97;5051475;28;20064;-60
2021/11/09 12:36:02;;;;;;;1.25;1.02;;;;;;;-1.10;66.75;99563.94;5053617;28;20395;-61
2021/11/09 12:38:40;;;;;;;2.40;1.50;;;;;;;-1.15;66.72;99574.81;5050238;28;20032;-59
2021/11/09 12:41:11;;;;;;;2.53;1.10;;;;;;;-1.10;66.20;99574.34;5051645;28;20049;-66
2021/11/09 12:43:48;;;;;;;1.98;1.23;;;;;;;-1.10;66.73;99587.34;5051544;28;20036;-66
2021/11/09 12:46:35;;;;;;;1.77;1.10;;;;;;;-1.19;66.41;99592.53;5050106;28;20051;-67
2021/11/09 12:49:21;;;;;;;1.80;1.02;;;;;;;-1.15;66.08;99599.06;5018006;28;20040;-69
2021/11/09 12:51:53;;;;;;;2.20;1.30;;;;;;;-1.07;66.76;99600.06;5053662;28;20103;-67
2021/11/09 12:54:27;;;;;;;1.25;1.15;;;;;;;-1.02;66.45;99603.81;5053202;28;20037;-68
2021/11/09 12:57:00;;;;;;;1.38;1.20;;;;;;;-0.99;65.34;99613.91;5051999;28;20506;-69
2021/11/09 12:59:54;;;;;;;6.18;1.95;;;;;;;-1.14;65.62;99615.47;5033124;28;20048;-71
2021/11/09 13:04:51;;;;;;;4.13;1.30;;;;;;;-1.02;65.79;99629.03;5050451;28;20695;-66
2021/11/09 13:10:01;;;;;;;2.17;1.27;;;;;;;-1.04;66.06;99649.97;5051597;28;20049;-66
2021/11/09 13:12:32;;;;;;;1.65;1.50;;;;;;;-0.98;66.04;99649.34;5051237;28;20067;-66
2021/11/09 13:15:08;;;;;;;2.45;1.30;;;;;;;-0.95;65.98;99650.84;5034326;28;20047;-67
2021/11/09 13:17:44;;;;;;;2.15;1.40;;;;;;;-0.94;66.18;99658.50;5050207;28;20045;-67
2021/11/09 13:22:58;;;;;;;1.13;0.93;;;;;;;-1.02;65.16;99670.66;5051072;28;20087;-66
2021/11/09 13:25:45;;;;;;;1.70;1.20;;;;;;;-1.06;65.79;99671.91;5049197;28;20041;-64
2021/11/09 13:28:11;;;;;;;3.78;1.42;;;;;;;-1.06;65.56;99683.16;5050940;28;20037;-65
2021/11/09 13:30:38;;;;;;;1.85;1.25;;;;;;;-1.04;65.28;99686.41;5048293;28;20460;-67
2021/11/09 13:33:04;;;;;;;4.20;1.38;;;;;;;-1.03;65.81;99695.88;5030925;28;20052;-67
2021/11/09 13:35:39;;;;;;;2.35;1.20;;;;;;;-1.07;66.56;99696.31;5049525;28;20049;-66
2021/11/09 13:38:26;;;;;;;2.90;1.20;;;;;;;-1.14;66.34;99696.13;5047583;28;20597;-67
2021/11/09 13:41:28;;;;;;;2.17;1.30;;;;;;;-1.09;66.46;99716.47;5049311;28;20095;-67
2021/11/09 13:43:58;;;;;;;2.85;1.80;;;;;;;-1.10;67.14;99714.84;5032860;28;20075;-66
2021/11/09 13:46:32;;;;;;;4.82;1.70;;;;;;;-1.12;67.58;99714.16;5045304;28;20356;-66
2021/11/09 13:49:02;;;;;;;2.80;1.77;;;;;;;-1.14;67.51;99724.75;5048710;28;20040;-67
2021/11/09 13:51:31;;;;;;;1.38;1.27;;;;;;;-1.19;67.21;99727.78;5048487;28;20045;-66
2021/11/09 13:54:05;;;;;;;1.77;1.30;;;;;;;-1.21;67.89;99742.72;5047499;28;20044;-67
2021/11/09 13:56:31;;;;;;;2.50;1.23;;;;;;;-1.23;67.39;99739.47;5048800;28;20045;-67
2021/11/09 13:59:07;;;;;;;3.15;1.50;;;;;;;-1.26;67.40;99750.19;5047086;28;20128;-67
2021/11/09 14:01:50;;;;;;;2.22;1.60;;;;;;;-1.24;67.95;99758.63;5051201;28;20392;-66
2021/11/09 14:07:17;;;;;;;3.03;1.73;;;;;;;-1.15;68.02;99765.56;5049927;28;20136;-68
2021/11/09 14:17:35;;;;;;;2.00;1.30;;;;;;;-1.12;67.27;99779.22;5051627;28;20052;-68
2021/11/09 14:20:14;;;;;;;1.60;1.30;;;;;;;-1.16;67.54;99784.72;5049772;28;20041;-66
2021/11/09 14:22:41;;;;;;;2.20;1.38;;;;;;;-1.14;67.39;99787.19;5050570;28;20494;-67
2021/11/09 14:25:09;;;;;;;2.35;1.40;;;;;;;-1.13;67.30;99788.00;5049738;28;20679;-69
2021/11/09 14:27:39;;;;;;;4.00;1.77;;;;;;;-1.03;67.53;99792.13;5050339;28;20045;-68
2021/11/09 14:30:07;;;;;;;1.52;1.42;;;;;;;-0.97;66.70;99804.53;5050343;28;20048;-66
2021/11/09 14:32:36;;;;;;;2.42;1.55;;;;;;;-0.94;66.67;99800.81;5050129;28;20140;-67
2021/11/09 14:35:20;;;;;;;3.08;1.67;;;;;;;-0.98;66.76;99809.88;5049339;28;20045;-66